Time;durP1;ratioP1;P1;durP2;ratioP2;P2;SDS_P1;SDS_P2;PMS_P1;PMS_P2;Temp;Humidity;BMP_temperature;BMP_pressure;BME280_temperature;BME280_humidity;BME280_pressure;Samples;Min_cycle;Max_cycle;Signal;HPM_P1;HPM_P2
2023/07/21 00:01:10;;;;;;;5.85;2.22;;;17.90;99.90;;;;;;5032739;28;20182;-29
2023/07/21 00:03:41;;;;;;;4.68;2.33;;;17.90;99.90;;;;;;5049490;28;20184;-29
2023/07/21 00:06:07;;;;;;;4.53;2.35;;;17.90;99.90;;;;;;5033214;28;20186;-31
2023/07/21 00:08:36;;;;;;;4.32;2.20;;;17.90;99.90;;;;;;5051629;28;20208;-30
2023/07/21 00:11:03;;;;;;;4.22;2.47;;;17.90;99.90;;;;;;5073404;28;20188;-30
2023/07/21 00:13:29;;;;;;;4.63;2.30;;;17.90;99.90;;;;;;5072942;28;20254;-30
2023/07/21 00:15:56;;;;;;;4.80;2.13;;;18.00;99.90;;;;;;5073104;28;20185;-30
2023/07/21 00:18:22;;;;;;;4.07;2.20;;;18.10;99.90;;;;;;5073525;28;20201;-30
2023/07/21 00:20:49;;;;;;;7.15;2.83;;;18.10;99.90;;;;;;5072293;28;20189;-30
2023/07/21 00:23:17;;;;;;;5.18;2.20;;;18.10;99.90;;;;;;5072484;28;20208;-30
2023/07/21 00:25:46;;;;;;;4.00;2.22;;;18.10;99.90;;;;;;5058956;28;20192;-30
2023/07/21 00:28:13;;;;;;;3.33;2.47;;;18.10;99.90;;;;;;5042330;28;20200;-30
2023/07/21 00:30:39;;;;;;;7.43;2.67;;;18.10;99.90;;;;;;5071587;28;20220;-30
2023/07/21 00:33:04;;;;;;;3.85;2.30;;;18.10;99.90;;;;;;5070929;28;20244;-29
2023/07/21 00:35:31;;;;;;;2.95;1.92;;;18.00;99.90;;;;;;5060599;28;20198;-30
2023/07/21 00:38:01;;;;;;;4.07;2.15;;;17.90;99.90;;;;;;5045099;28;20210;-30
2023/07/21 00:40:27;;;;;;;3.13;2.30;;;17.90;99.90;;;;;;5044369;28;20174;-30
2023/07/21 00:42:54;;;;;;;3.88;2.33;;;17.90;99.90;;;;;;5037033;28;20162;-30
2023/07/21 00:45:20;;;;;;;5.95;2.50;;;17.90;99.90;;;;;;5038113;28;20181;-29
2023/07/21 00:47:47;;;;;;;5.63;2.22;;;17.80;99.90;;;;;;5046005;28;20190;-30
2023/07/21 00:50:14;;;;;;;5.28;2.47;;;17.80;99.90;;;;;;5056177;28;20174;-29
2023/07/21 00:52:40;;;;;;;2.83;2.03;;;17.80;99.90;;;;;;5035709;28;20182;-30
2023/07/21 00:55:07;;;;;;;3.25;2.38;;;17.80;99.90;;;;;;5052498;28;20300;-30
2023/07/21 00:57:34;;;;;;;3.55;2.33;;;17.70;99.90;;;;;;5035558;28;20185;-30
2023/07/21 01:00:06;;;;;;;3.60;2.17;;;17.60;99.90;;;;;;5035761;28;20198;-30
2023/07/21 01:02:33;;;;;;;7.22;2.50;;;17.50;99.90;;;;;;5053379;28;20182;-29
2023/07/21 01:05:01;;;;;;;6.65;2.63;;;17.40;99.90;;;;;;5063568;28;20186;-29
2023/07/21 01:07:30;;;;;;;6.10;2.60;;;17.30;99.90;;;;;;5052540;28;20186;-29
2023/07/21 01:09:57;;;;;;;3.83;2.30;;;17.20;99.90;;;;;;5052439;28;20239;-30
2023/07/21 01:12:23;;;;;;;2.57;2.20;;;17.20;99.90;;;;;;5030528;28;20193;-29
2023/07/21 01:14:49;;;;;;;4.15;2.40;;;17.10;99.90;;;;;;5050973;28;20205;-31
2023/07/21 01:17:15;;;;;;;4.18;2.35;;;17.20;99.90;;;;;;5032276;28;20225;-30
2023/07/21 01:19:47;;;;;;;3.63;2.30;;;17.20;99.90;;;;;;5051988;28;20190;-29
2023/07/21 01:22:24;;;;;;;6.20;2.45;;;17.10;99.90;;;;;;5035282;28;20208;-30
2023/07/21 01:24:49;;;;;;;2.88;2.10;;;17.10;99.90;;;;;;5052240;28;20200;-30
2023/07/21 01:27:20;;;;;;;5.18;2.10;;;17.10;99.90;;;;;;5043403;28;20180;-30
2023/07/21 01:29:47;;;;;;;7.28;2.28;;;17.10;99.90;;;;;;5035595;28;20339;-30
2023/07/21 01:32:17;;;;;;;3.28;2.20;;;17.10;99.90;;;;;;5043072;28;20311;-29
2023/07/21 01:34:44;;;;;;;2.30;2.00;;;17.10;99.90;;;;;;5041588;28;20206;-30
2023/07/21 01:37:11;;;;;;;2.67;2.15;;;17.00;99.90;;;;;;5071571;28;20177;-29
2023/07/21 01:39:38;;;;;;;3.03;2.10;;;17.00;99.90;;;;;;5069846;28;20193;-30
2023/07/21 01:42:06;;;;;;;4.67;2.30;;;17.00;99.90;;;;;;5047888;28;20239;-30
2023/07/21 01:44:32;;;;;;;6.30;2.25;;;16.90;99.90;;;;;;5059543;28;20186;-29
2023/07/21 01:46:58;;;;;;;3.25;2.17;;;16.80;99.90;;;;;;5037227;28;20197;-30
2023/07/21 01:49:24;;;;;;;7.50;3.90;;;16.80;99.90;;;;;;5045966;28;20210;-30
2023/07/21 01:51:52;;;;;;;6.67;3.70;;;16.80;99.90;;;;;;5059868;28;20666;-30
2023/07/21 01:54:28;;;;;;;4.37;2.90;;;16.80;99.90;;;;;;5049398;28;20212;-30
2023/07/21 01:57:06;;;;;;;4.17;2.40;;;16.80;99.90;;;;;;5050688;28;20173;-30
2023/07/21 01:59:32;;;;;;;2.93;2.10;;;16.70;99.90;;;;;;5056336;28;20388;-29
2023/07/21 02:01:59;;;;;;;5.75;2.20;;;16.70;99.90;;;;;;5053722;28;20184;-29
2023/07/21 02:04:25;;;;;;;4.20;2.50;;;16.60;99.90;;;;;;5067971;28;20189;-30
2023/07/21 02:06:52;;;;;;;3.20;2.40;;;16.60;99.90;;;;;;5051642;28;20174;-29
2023/07/21 02:09:19;;;;;;;4.33;2.90;;;16.60;99.90;;;;;;5052089;28;20222;-30
2023/07/21 02:11:45;;;;;;;4.60;2.60;;;16.50;99.90;;;;;;5047845;28;20181;-30
2023/07/21 02:14:29;;;;;;;4.87;2.57;;;16.50;99.90;;;;;;5060773;28;20198;-29
2023/07/21 02:16:55;;;;;;;3.67;2.33;;;16.50;99.90;;;;;;5061160;28;20276;-30
2023/07/21 02:19:20;;;;;;;3.40;2.67;;;16.40;99.90;;;;;;5058243;28;20190;-29
2023/07/21 02:21:46;;;;;;;5.17;2.30;;;16.40;99.90;;;;;;5063075;28;20191;-29
2023/07/21 02:24:12;;;;;;;3.23;2.43;;;16.40;99.90;;;;;;5042926;28;20192;-30
2023/07/21 02:26:38;;;;;;;4.00;2.47;;;16.30;99.90;;;;;;5051089;28;20186;-30
2023/07/21 02:29:05;;;;;;;4.30;2.57;;;16.20;99.90;;;;;;5068686;28;20193;-30
2023/07/21 02:31:31;;;;;;;3.07;2.23;;;16.20;99.90;;;;;;5055250;28;20223;-29
2023/07/21 02:33:57;;;;;;;2.67;2.33;;;16.10;99.90;;;;;;5058655;28;20189;-30
2023/07/21 02:36:23;;;;;;;4.27;2.37;;;16.10;99.90;;;;;;5058831;28;20195;-30
2023/07/21 02:38:51;;;;;;;4.00;2.40;;;16.10;99.90;;;;;;5054542;28;20189;-30
2023/07/21 02:41:17;;;;;;;4.27;2.30;;;16.10;99.90;;;;;;5043649;28;20178;-29
2023/07/21 02:43:43;;;;;;;3.60;2.30;;;16.00;99.90;;;;;;5050747;28;20193;-30
2023/07/21 02:46:08;;;;;;;3.27;2.30;;;16.00;99.90;;;;;;5050263;28;20277;-29
2023/07/21 02:48:34;;;;;;;4.33;2.50;;;16.00;99.90;;;;;;5040491;28;20207;-30
2023/07/21 02:51:00;;;;;;;3.63;2.60;;;16.00;99.90;;;;;;5050047;28;20185;-29
2023/07/21 02:53:30;;;;;;;5.93;2.50;;;15.90;99.90;;;;;;5040690;28;20208;-29
2023/07/21 02:56:03;;;;;;;4.73;2.83;;;15.80;99.90;;;;;;5034219;28;20170;-30
2023/07/21 02:58:30;;;;;;;3.37;2.40;;;15.80;99.90;;;;;;5033970;28;20193;-30
2023/07/21 03:00:57;;;;;;;3.30;2.73;;;15.70;99.90;;;;;;5033622;28;20179;-30
2023/07/21 03:03:32;;;;;;;3.30;2.43;;;15.70;99.90;;;;;;5034616;28;20185;-30
2023/07/21 03:06:06;;;;;;;2.33;2.10;;;15.70;99.90;;;;;;5034797;28;20181;-29
2023/07/21 03:08:33;;;;;;;3.97;2.40;;;15.70;99.90;;;;;;5036092;28;20201;-30
2023/07/21 03:11:05;;;;;;;3.40;2.50;;;15.70;99.90;;;;;;5069391;28;20177;-29
2023/07/21 03:13:35;;;;;;;3.80;3.00;;;15.70;99.90;;;;;;5064769;28;20703;-29
2023/07/21 03:16:02;;;;;;;3.90;2.70;;;15.60;99.90;;;;;;5049608;28;20194;-30
2023/07/21 03:18:31;;;;;;;4.63;2.57;;;15.50;99.90;;;;;;5042118;28;20204;-30
2023/07/21 03:21:10;;;;;;;4.83;2.80;;;15.50;99.90;;;;;;5069372;28;20208;-29
2023/07/21 03:23:37;;;;;;;4.63;2.97;;;15.50;99.90;;;;;;5064966;28;20174;-30
2023/07/21 03:26:03;;;;;;;4.20;2.50;;;15.50;99.90;;;;;;5047855;28;20186;-29
2023/07/21 03:28:35;;;;;;;3.87;2.63;;;15.40;99.90;;;;;;5048040;28;20281;-29
2023/07/21 03:31:02;;;;;;;5.90;2.97;;;15.40;99.90;;;;;;5036718;28;20185;-30
2023/07/21 03:33:36;;;;;;;3.73;2.87;;;15.50;99.90;;;;;;5067412;28;20343;-29
2023/07/21 03:36:21;;;;;;;4.37;2.70;;;15.50;99.90;;;;;;5037386;28;20220;-29
2023/07/21 03:38:47;;;;;;;5.43;2.67;;;15.50;99.90;;;;;;5056624;28;20250;-29
2023/07/21 03:41:13;;;;;;;4.43;2.87;;;15.40;99.90;;;;;;5066263;28;20180;-30
2023/07/21 03:43:41;;;;;;;4.47;2.70;;;15.40;99.90;;;;;;5067269;28;20174;-29
2023/07/21 03:46:07;;;;;;;4.87;2.90;;;15.40;99.90;;;;;;5050552;28;20178;-29
2023/07/21 03:48:53;;;;;;;3.67;2.90;;;15.30;99.90;;;;;;5066856;28;20228;-29
2023/07/21 03:51:19;;;;;;;3.57;3.27;;;15.20;99.90;;;;;;5050560;28;20174;-30
2023/07/21 03:53:46;;;;;;;3.57;2.90;;;15.30;99.90;;;;;;5055360;28;20193;-30
2023/07/21 03:56:12;;;;;;;3.97;2.50;;;15.30;99.90;;;;;;5053280;28;20189;-29
2023/07/21 03:58:38;;;;;;;2.70;2.30;;;15.20;99.90;;;;;;5041262;28;20199;-29
2023/07/21 04:01:04;;;;;;;3.97;2.30;;;15.20;99.90;;;;;;5058024;28;20185;-30
2023/07/21 04:03:30;;;;;;;4.87;2.90;;;15.10;99.90;;;;;;5049160;28;20181;-29
2023/07/21 04:05:57;;;;;;;3.90;3.00;;;15.10;99.90;;;;;;5048756;28;20174;-29
2023/07/21 04:08:23;;;;;;;4.07;2.80;;;15.10;99.90;;;;;;5049760;28;20206;-30
2023/07/21 04:10:49;;;;;;;3.23;2.67;;;15.00;99.90;;;;;;5059720;28;20247;-29
2023/07/21 04:13:15;;;;;;;4.23;2.53;;;15.00;99.90;;;;;;5031675;28;20236;-29
2023/07/21 04:15:41;;;;;;;6.10;3.23;;;14.90;99.90;;;;;;5049642;28;20201;-30
2023/07/21 04:18:07;;;;;;;4.73;2.63;;;14.90;99.90;;;;;;5034005;28;20208;-29
2023/07/21 04:20:33;;;;;;;3.67;2.70;;;14.80;99.90;;;;;;5033821;28;20267;-30
2023/07/21 04:22:59;;;;;;;3.53;2.80;;;14.80;99.90;;;;;;5048864;28;20684;-29
2023/07/21 04:25:25;;;;;;;4.33;2.73;;;14.80;99.90;;;;;;5048958;28;20201;-29
2023/07/21 04:27:54;;;;;;;3.63;2.87;;;14.90;99.90;;;;;;5050562;28;20200;-29
2023/07/21 04:30:22;;;;;;;3.50;2.90;;;15.00;99.90;;;;;;5043693;28;20184;-29
2023/07/21 04:32:48;;;;;;;8.37;3.00;;;15.10;99.90;;;;;;5039747;28;20212;-29
2023/07/21 04:35:16;;;;;;;4.23;2.47;;;15.20;99.90;;;;;;5069230;28;20296;-30
2023/07/21 04:37:44;;;;;;;3.90;3.13;;;15.30;99.90;;;;;;5069073;28;20185;-29
2023/07/21 04:40:12;;;;;;;4.03;2.70;;;15.40;99.90;;;;;;5069382;28;20192;-29
2023/07/21 04:42:50;;;;;;;4.17;2.73;;;15.40;99.90;;;;;;5060250;28;20170;-29
2023/07/21 04:45:17;;;;;;;3.50;2.70;;;15.50;99.90;;;;;;5054648;28;20174;-30
2023/07/21 04:47:57;;;;;;;4.13;3.00;;;15.50;99.90;;;;;;5032397;28;20205;-30
2023/07/21 04:50:24;;;;;;;4.77;2.90;;;15.50;99.90;;;;;;5030439;28;20182;-30
2023/07/21 04:52:50;;;;;;;8.47;2.70;;;15.60;99.90;;;;;;5032115;28;20178;-29
2023/07/21 04:55:16;;;;;;;4.07;3.07;;;15.70;99.90;;;;;;5036688;28;20201;-29
2023/07/21 04:57:42;;;;;;;3.43;2.70;;;15.70;99.90;;;;;;5052067;28;20170;-30
2023/07/21 05:00:12;;;;;;;5.47;3.00;;;15.70;99.90;;;;;;5055516;28;20198;-30
2023/07/21 05:02:39;;;;;;;4.50;3.13;;;15.90;99.90;;;;;;5045593;28;20193;-29
2023/07/21 05:05:05;;;;;;;3.90;3.10;;;16.00;99.90;;;;;;5053928;28;20185;-29
2023/07/21 05:07:35;;;;;;;4.40;2.53;;;16.00;99.90;;;;;;5045070;28;20193;-30
2023/07/21 05:10:02;;;;;;;4.43;3.07;;;16.10;99.90;;;;;;5063591;28;20244;-30
2023/07/21 05:12:29;;;;;;;5.73;2.90;;;16.10;99.90;;;;;;5044265;28;20668;-29
2023/07/21 05:15:09;;;;;;;4.63;3.00;;;16.10;99.90;;;;;;5061045;28;20202;-30
2023/07/21 05:17:39;;;;;;;5.20;2.97;;;16.10;99.90;;;;;;5048212;28;20202;-30
2023/07/21 05:20:29;;;;;;;4.73;2.77;;;16.10;99.90;;;;;;5057063;28;20221;-30
2023/07/21 05:23:07;;;;;;;3.83;3.07;;;16.10;99.90;;;;;;5040633;28;20278;-29
2023/07/21 05:25:44;;;;;;;3.47;3.10;;;16.30;99.90;;;;;;5034658;28;20261;-29
2023/07/21 05:28:10;;;;;;;4.87;3.00;;;16.40;99.90;;;;;;5048717;28;20194;-30
2023/07/21 05:30:42;;;;;;;3.93;2.70;;;16.60;99.90;;;;;;5039464;28;20178;-30
2023/07/21 05:33:09;;;;;;;3.27;2.97;;;16.70;99.90;;;;;;5063987;28;20178;-30
2023/07/21 05:35:36;;;;;;;4.07;3.13;;;16.90;99.90;;;;;;5047404;28;20171;-29
2023/07/21 05:38:13;;;;;;;5.23;3.10;;;17.00;99.90;;;;;;5051586;28;20280;-29
2023/07/21 05:40:44;;;;;;;3.53;2.93;;;17.10;99.90;;;;;;5045880;28;20264;-30
2023/07/21 05:43:13;;;;;;;6.20;3.17;;;17.20;99.90;;;;;;5042838;28;20170;-30
2023/07/21 05:45:41;;;;;;;4.80;2.70;;;17.20;99.90;;;;;;5061220;28;20172;-30
2023/07/21 05:48:09;;;;;;;3.55;2.97;;;17.30;99.90;;;;;;5045958;28;20262;-30
2023/07/21 05:50:39;;;;;;;4.53;3.20;;;17.30;99.90;;;;;;5048731;28;20174;-30
2023/07/21 05:53:07;;;;;;;4.87;3.07;;;17.40;99.90;;;;;;5055458;28;20182;-30
2023/07/21 05:55:33;;;;;;;3.50;2.80;;;17.40;99.90;;;;;;5053427;28;20188;-29
2023/07/21 05:57:59;;;;;;;4.88;2.80;;;17.50;99.90;;;;;;5045820;28;20207;-29
2023/07/21 06:00:26;;;;;;;6.75;2.80;;;17.60;99.90;;;;;;5050324;28;20190;-30
2023/07/21 06:02:58;;;;;;;4.72;3.00;;;17.70;99.90;;;;;;5057018;28;20187;-29
2023/07/21 06:05:24;;;;;;;3.17;2.88;;;17.80;99.90;;;;;;5074237;28;20173;-29
2023/07/21 06:08:09;;;;;;;3.45;2.97;;;17.90;99.90;;;;;;5072043;28;20200;-30
2023/07/21 06:10:57;;;;;;;3.55;2.83;;;18.00;99.90;;;;;;5072738;28;20212;-30
2023/07/21 06:13:43;;;;;;;3.40;2.58;;;18.10;99.90;;;;;;5057167;28;20213;-30
2023/07/21 06:16:32;;;;;;;4.85;2.90;;;18.20;99.90;;;;;;5068275;28;20267;-30
2023/07/21 06:19:00;;;;;;;3.55;2.60;;;18.30;99.90;;;;;;5071004;28;20296;-29
2023/07/21 06:21:26;;;;;;;3.05;2.60;;;18.40;99.90;;;;;;5054775;28;20173;-30
2023/07/21 06:23:53;;;;;;;3.83;2.80;;;18.50;99.90;;;;;;5070496;28;20268;-30
2023/07/21 06:26:20;;;;;;;3.38;3.03;;;18.60;99.90;;;;;;5033831;28;20178;-30
2023/07/21 06:28:46;;;;;;;6.03;3.08;;;18.70;99.90;;;;;;5034861;28;20204;-30
2023/07/21 06:31:15;;;;;;;4.20;2.88;;;18.70;99.90;;;;;;5034801;28;20260;-30
2023/07/21 06:34:11;;;;;;;6.07;3.00;;;18.70;99.90;;;;;;5019872;28;20206;-30
2023/07/21 06:37:02;;;;;;;5.35;2.80;;;18.80;99.90;;;;;;5050836;28;20182;-30
2023/07/21 06:39:39;;;;;;;4.38;2.75;;;18.80;99.90;;;;;;5035664;28;20201;-30
2023/07/21 06:42:24;;;;;;;4.75;3.03;;;18.90;99.90;;;;;;5051018;28;20192;-30
2023/07/21 06:45:16;;;;;;;5.90;2.85;;;19.00;99.90;;;;;;5035356;28;20174;-30
2023/07/21 06:48:02;;;;;;;4.97;2.70;;;19.20;99.90;;;;;;5036824;28;20177;-30
2023/07/21 06:50:37;;;;;;;4.43;2.80;;;19.40;99.90;;;;;;5050847;28;20180;-30
2023/07/21 06:53:06;;;;;;;3.15;2.70;;;19.70;99.90;;;;;;5033664;28;20173;-29
2023/07/21 06:55:33;;;;;;;4.20;2.72;;;19.90;99.90;;;;;;5033940;28;20182;-31
2023/07/21 06:57:59;;;;;;;4.93;3.10;;;19.90;99.90;;;;;;5033584;28;20175;-30
2023/07/21 07:00:25;;;;;;;4.78;3.15;;;20.00;99.90;;;;;;5033873;28;20173;-30
2023/07/21 07:02:51;;;;;;;4.55;3.05;;;20.00;99.90;;;;;;5033413;28;20178;-30
2023/07/21 07:05:17;;;;;;;3.17;2.78;;;20.00;99.90;;;;;;5050376;28;20178;-30
2023/07/21 07:07:43;;;;;;;4.63;2.55;;;20.00;99.90;;;;;;5033493;28;20253;-30
2023/07/21 07:10:10;;;;;;;4.07;2.92;;;20.00;99.90;;;;;;5033825;28;20251;-30
2023/07/21 07:12:38;;;;;;;3.03;2.63;;;20.00;99.90;;;;;;5033341;28;20228;-30
2023/07/21 07:15:05;;;;;;;5.22;2.97;;;20.30;99.90;;;;;;5033257;28;20231;-30
2023/07/21 07:17:31;;;;;;;2.70;2.50;;;20.40;99.90;;;;;;5033212;28;20205;-30
2023/07/21 07:19:57;;;;;;;4.95;2.80;;;20.60;99.90;;;;;;5033520;28;20201;-30
2023/07/21 07:22:23;;;;;;;4.18;2.97;;;20.80;99.90;;;;;;5033130;28;20178;-30
2023/07/21 07:24:49;;;;;;;3.15;2.35;;;20.90;99.90;;;;;;5033434;28;20178;-30
2023/07/21 07:27:14;;;;;;;2.92;2.60;;;20.90;99.90;;;;;;5036300;28;20177;-30
2023/07/21 07:29:40;;;;;;;3.50;2.50;;;20.90;99.90;;;;;;5048762;28;20284;-29
2023/07/21 07:32:07;;;;;;;3.90;2.80;;;21.00;99.90;;;;;;5066270;28;20216;-31
2023/07/21 07:34:32;;;;;;;2.95;2.65;;;20.90;99.90;;;;;;5050006;28;20206;-30
2023/07/21 07:36:59;;;;;;;3.60;2.55;;;20.90;99.90;;;;;;5049747;28;20240;-31
2023/07/21 07:39:25;;;;;;;3.25;2.03;;;21.00;99.90;;;;;;5049957;28;20216;-30
2023/07/21 07:41:51;;;;;;;3.20;2.15;;;21.10;99.90;;;;;;5050719;28;20178;-30
2023/07/21 07:44:18;;;;;;;4.93;2.70;;;21.20;99.90;;;;;;5050090;28;20191;-31
2023/07/21 07:46:44;;;;;;;4.07;2.55;;;21.30;99.90;;;;;;5049644;28;20186;-30
2023/07/21 07:49:10;;;;;;;3.08;2.45;;;21.50;99.90;;;;;;5049809;28;20193;-31
2023/07/21 07:51:39;;;;;;;2.53;2.33;;;21.70;99.90;;;;;;5049344;28;20323;-31
2023/07/21 07:54:07;;;;;;;5.85;2.53;;;21.80;99.90;;;;;;5049388;28;20213;-31
2023/07/21 07:56:33;;;;;;;2.10;1.92;;;22.00;99.90;;;;;;5055998;28;20185;-30
2023/07/21 07:58:59;;;;;;;2.67;2.10;;;22.20;99.90;;;;;;5034027;28;20194;-31
2023/07/21 08:01:26;;;;;;;2.67;2.03;;;22.40;99.90;;;;;;5051863;28;20178;-30
2023/07/21 08:03:53;;;;;;;3.17;2.40;;;22.50;99.90;;;;;;5062381;28;20165;-31
2023/07/21 08:06:19;;;;;;;3.30;2.15;;;22.60;99.90;;;;;;5068841;28;20268;-30
2023/07/21 08:08:46;;;;;;;2.22;1.95;;;22.50;99.90;;;;;;5069742;28;20201;-31
2023/07/21 08:11:12;;;;;;;2.28;2.00;;;22.40;99.90;;;;;;5054071;28;20178;-30
2023/07/21 08:13:39;;;;;;;3.45;1.90;;;22.40;99.90;;;;;;5049221;28;20232;-31
2023/07/21 08:16:11;;;;;;;4.15;2.40;;;22.40;99.90;;;;;;5049741;28;20268;-30
2023/07/21 08:18:37;;;;;;;2.80;2.00;;;22.50;99.90;;;;;;5050833;28;20193;-30
2023/07/21 08:21:22;;;;;;;2.75;1.83;;;22.60;99.90;;;;;;5051811;28;20184;-32
2023/07/21 08:23:49;;;;;;;3.40;2.10;;;22.90;99.90;;;;;;5054205;28;20224;-31
2023/07/21 08:26:15;;;;;;;3.08;1.90;;;23.20;99.90;;;;;;5049778;28;20281;-31
2023/07/21 08:28:41;;;;;;;2.30;1.80;;;23.50;99.90;;;;;;5033533;28;20202;-30
2023/07/21 08:31:09;;;;;;;3.67;2.17;;;23.70;99.90;;;;;;5047403;28;20624;-31
2023/07/21 08:33:35;;;;;;;3.13;2.10;;;24.00;99.90;;;;;;5060114;28;20206;-31
2023/07/21 08:36:02;;;;;;;3.72;1.95;;;24.20;99.90;;;;;;5053517;28;20210;-31
2023/07/21 08:38:28;;;;;;;2.05;1.80;;;24.50;99.90;;;;;;5053524;28;20208;-31
2023/07/21 08:41:23;;;;;;;2.45;1.80;;;24.50;99.90;;;;;;5053690;28;20268;-32
2023/07/21 08:43:50;;;;;;;1.67;1.58;;;24.70;99.90;;;;;;5048224;28;20280;-32
2023/07/21 08:46:15;;;;;;;2.05;1.85;;;24.80;99.90;;;;;;5053578;28;20263;-31
2023/07/21 08:48:42;;;;;;;2.35;1.35;;;25.00;99.90;;;;;;5054212;28;20229;-31
2023/07/21 08:51:08;;;;;;;1.83;1.50;;;25.10;99.90;;;;;;5053906;28;20182;-31
2023/07/21 08:53:34;;;;;;;1.73;1.42;;;25.40;99.90;;;;;;5052678;28;20210;-31
2023/07/21 08:56:01;;;;;;;2.80;1.40;;;25.20;99.90;;;;;;5052840;28;20269;-32
2023/07/21 08:58:28;;;;;;;3.55;1.70;;;25.50;99.90;;;;;;5036085;28;20209;-31
2023/07/21 09:00:56;;;;;;;1.65;1.55;;;25.80;99.90;;;;;;5038794;28;20184;-31
2023/07/21 09:03:23;;;;;;;1.88;1.60;;;26.00;99.90;;;;;;5051842;28;20177;-32
2023/07/21 09:05:50;;;;;;;1.88;1.50;;;26.00;99.90;;;;;;5052264;28;20190;-32
2023/07/21 09:08:27;;;;;;;2.65;1.50;;;26.40;99.90;;;;;;5068459;28;20202;-31
2023/07/21 09:11:06;;;;;;;1.75;1.55;;;26.60;99.90;;;;;;5052912;28;20180;-31
2023/07/21 09:13:36;;;;;;;1.70;1.60;;;26.70;99.60;;;;;;5063976;28;20200;-31
2023/07/21 09:16:07;;;;;;;1.55;1.45;;;26.90;99.40;;;;;;5051995;28;20275;-30
2023/07/21 09:18:41;;;;;;;2.13;1.40;;;26.90;98.50;;;;;;5035345;28;20225;-31
2023/07/21 09:21:16;;;;;;;2.90;1.55;;;27.00;98.90;;;;;;5036048;28;20177;-31
2023/07/21 09:23:43;;;;;;;4.82;1.80;;;26.90;98.10;;;;;;5035986;28;20187;-30
2023/07/21 09:26:24;;;;;;;1.98;1.50;;;27.00;99.20;;;;;;5052096;28;20188;-31
2023/07/21 09:28:53;;;;;;;1.55;1.45;;;27.20;99.30;;;;;;5035393;28;20202;-31
2023/07/21 09:31:33;;;;;;;1.90;1.50;;;27.00;98.00;;;;;;5042519;28;20656;-30
2023/07/21 09:34:08;;;;;;;3.00;1.70;;;27.10;98.60;;;;;;5055675;28;20291;-31
2023/07/21 09:36:34;;;;;;;2.00;1.73;;;27.20;98.80;;;;;;5055806;28;20187;-30
2023/07/21 09:39:05;;;;;;;1.73;1.63;;;27.30;97.10;;;;;;5068119;28;20276;-31
2023/07/21 09:41:33;;;;;;;3.05;1.65;;;27.20;97.40;;;;;;5061299;28;20210;-30
2023/07/21 09:44:00;;;;;;;2.78;1.42;;;27.40;97.60;;;;;;5051965;28;20178;-30
2023/07/21 09:46:26;;;;;;;5.03;1.70;;;27.20;96.30;;;;;;5051491;28;20182;-31
2023/07/21 09:48:53;;;;;;;1.55;1.40;;;27.20;97.20;;;;;;5051874;28;20285;-31
2023/07/21 09:51:20;;;;;;;1.85;1.50;;;27.20;97.10;;;;;;5035239;28;20186;-31
2023/07/21 09:53:49;;;;;;;1.60;1.50;;;27.50;97.60;;;;;;5034797;28;20224;-31
2023/07/21 09:56:17;;;;;;;1.50;1.40;;;27.40;96.80;;;;;;5054355;28;20186;-31
2023/07/21 09:59:01;;;;;;;2.97;1.75;;;27.30;97.50;;;;;;5038555;28;20229;-31
2023/07/21 10:01:29;;;;;;;1.73;1.63;;;27.40;98.00;;;;;;5050958;28;20201;-31
2023/07/21 10:03:57;;;;;;;2.05;1.40;;;27.60;97.20;;;;;;5056370;28;20192;-30
2023/07/21 10:06:26;;;;;;;2.78;1.75;;;27.60;97.60;;;;;;5070633;28;20196;-31
2023/07/21 10:08:53;;;;;;;1.88;1.70;;;27.80;97.20;;;;;;5054595;28;20204;-31
2023/07/21 10:11:19;;;;;;;3.85;1.67;;;27.80;96.70;;;;;;5063055;28;20177;-31
2023/07/21 10:13:47;;;;;;;1.95;1.75;;;27.70;96.40;;;;;;5061420;28;20201;-32
2023/07/21 10:16:14;;;;;;;2.05;1.58;;;27.80;95.80;;;;;;5056567;28;20247;-31
2023/07/21 10:19:14;;;;;;;2.00;1.83;;;28.10;96.70;;;;;;5059183;28;20201;-31
2023/07/21 10:21:51;;;;;;;2.83;1.60;;;28.40;96.10;;;;;;4998903;28;20186;-31
2023/07/21 10:24:23;;;;;;;2.15;1.50;;;28.70;96.30;;;;;;5044675;28;20209;-31
2023/07/21 10:27:00;;;;;;;2.20;1.52;;;28.90;95.90;;;;;;5050803;28;20243;-30
2023/07/21 10:29:25;;;;;;;2.33;1.85;;;28.90;95.20;;;;;;5057434;28;20208;-31
2023/07/21 10:31:56;;;;;;;1.60;1.50;;;28.90;94.90;;;;;;5069173;28;20177;-31
2023/07/21 10:34:30;;;;;;;3.30;1.90;;;28.80;95.10;;;;;;5051348;28;20219;-31
2023/07/21 10:37:02;;;;;;;2.20;1.70;;;28.70;94.50;;;;;;5031346;28;20235;-32
2023/07/21 10:39:33;;;;;;;2.13;1.77;;;28.50;95.10;;;;;;5061521;28;20192;-32
2023/07/21 10:42:04;;;;;;;3.10;1.98;;;28.40;95.40;;;;;;5062230;28;20201;-32
2023/07/21 10:44:47;;;;;;;3.10;1.75;;;28.30;95.30;;;;;;5044354;28;20193;-32
2023/07/21 10:47:20;;;;;;;2.05;1.70;;;28.10;95.10;;;;;;5052261;28;20178;-31
2023/07/21 10:49:48;;;;;;;3.25;1.77;;;27.80;95.60;;;;;;5033983;28;20197;-32
2023/07/21 10:52:14;;;;;;;4.20;1.90;;;27.70;96.90;;;;;;5050242;28;20182;-31
2023/07/21 10:54:40;;;;;;;1.55;1.45;;;27.40;95.60;;;;;;5049909;28;20221;-32
2023/07/21 10:57:08;;;;;;;3.22;1.80;;;27.10;96.00;;;;;;5054914;28;20260;-32
2023/07/21 10:59:36;;;;;;;1.90;1.80;;;26.90;96.50;;;;;;5042436;28;20202;-31
2023/07/21 11:02:04;;;;;;;2.25;1.80;;;26.80;97.10;;;;;;5047867;28;20642;-31
2023/07/21 11:04:33;;;;;;;1.63;1.52;;;26.60;97.10;;;;;;5061240;28;20189;-31
2023/07/21 11:07:01;;;;;;;2.15;1.80;;;26.50;97.40;;;;;;5069586;28;20181;-32
2023/07/21 11:09:31;;;;;;;2.40;1.83;;;26.40;97.20;;;;;;5070236;28;20201;-31
2023/07/21 11:11:59;;;;;;;2.10;1.90;;;26.30;97.40;;;;;;5058971;28;20196;-32
2023/07/21 11:14:26;;;;;;;2.53;1.67;;;26.20;97.80;;;;;;5050883;28;20213;-31
2023/07/21 11:17:01;;;;;;;1.50;1.38;;;26.10;96.80;;;;;;5067689;28;20174;-31
2023/07/21 11:19:32;;;;;;;2.50;1.88;;;26.00;97.20;;;;;;5050280;28;20198;-31
2023/07/21 11:21:58;;;;;;;2.30;2.00;;;26.00;97.80;;;;;;5050446;28;20185;-31
2023/07/21 11:24:29;;;;;;;3.17;2.03;;;25.80;97.60;;;;;;5042093;28;20178;-31
2023/07/21 11:26:58;;;;;;;2.13;1.60;;;25.70;97.90;;;;;;5058968;28;20213;-31
2023/07/21 11:29:24;;;;;;;2.35;1.58;;;25.70;97.90;;;;;;5033498;28;20198;-31
2023/07/21 11:31:50;;;;;;;3.10;1.67;;;25.70;97.90;;;;;;5033355;28;20182;-31
2023/07/21 11:34:26;;;;;;;2.10;1.58;;;25.50;97.10;;;;;;5033455;28;20206;-31
2023/07/21 11:37:00;;;;;;;2.10;1.90;;;25.50;97.60;;;;;;5053189;28;20173;-31
2023/07/21 11:39:28;;;;;;;1.70;1.60;;;25.60;98.30;;;;;;5053069;28;20201;-32
2023/07/21 11:42:03;;;;;;;2.72;1.65;;;25.70;98.30;;;;;;5047922;28;20264;-31
2023/07/21 11:44:35;;;;;;;1.88;1.67;;;25.70;98.30;;;;;;5049896;28;20181;-31
2023/07/21 11:47:16;;;;;;;2.28;1.73;;;25.80;98.60;;;;;;5066227;28;20201;-31
2023/07/21 11:49:46;;;;;;;2.42;1.60;;;25.70;97.30;;;;;;5033192;28;20205;-31
2023/07/21 11:52:24;;;;;;;2.22;1.63;;;25.70;97.70;;;;;;5049133;28;20181;-31
2023/07/21 11:54:50;;;;;;;2.78;1.70;;;25.60;97.90;;;;;;5048440;28;20205;-31
2023/07/21 11:57:18;;;;;;;6.50;2.00;;;25.50;97.70;;;;;;5058757;28;20189;-32
2023/07/21 11:59:44;;;;;;;2.53;1.73;;;25.50;98.30;;;;;;5062151;28;20198;-31
2023/07/21 12:02:14;;;;;;;3.78;1.75;;;25.50;98.50;;;;;;5049823;28;20185;-31
2023/07/21 12:04:40;;;;;;;4.60;1.80;;;25.50;99.50;;;;;;5044345;28;20261;-31
2023/07/21 12:07:08;;;;;;;3.22;1.50;;;25.50;99.80;;;;;;5052551;28;20284;-32
2023/07/21 12:09:34;;;;;;;1.70;1.60;;;25.50;98.90;;;;;;5053130;28;20255;-32
2023/07/21 12:12:00;;;;;;;2.88;1.60;;;25.50;99.00;;;;;;5053416;28;20174;-32
2023/07/21 12:14:26;;;;;;;3.80;1.80;;;25.50;98.50;;;;;;5059422;28;20213;-31
2023/07/21 12:16:56;;;;;;;1.60;1.50;;;25.50;98.60;;;;;;5052654;28;20197;-31
2023/07/21 12:19:24;;;;;;;1.83;1.73;;;25.40;99.40;;;;;;5053132;28;20255;-31
2023/07/21 12:21:51;;;;;;;3.63;1.75;;;25.40;99.60;;;;;;5019791;28;20213;-31
2023/07/21 12:24:18;;;;;;;1.58;1.42;;;25.30;98.80;;;;;;5052396;28;20181;-32
2023/07/21 12:26:45;;;;;;;2.65;1.67;;;25.20;98.90;;;;;;5059826;28;20208;-31
2023/07/21 12:29:11;;;;;;;3.15;1.88;;;25.20;98.90;;;;;;5047407;28;20201;-31
2023/07/21 12:31:37;;;;;;;2.30;1.75;;;25.20;99.40;;;;;;5045450;28;20189;-31
2023/07/21 12:34:06;;;;;;;2.22;1.70;;;25.10;99.50;;;;;;5059879;28;20217;-30
2023/07/21 12:36:32;;;;;;;5.22;1.77;;;24.90;98.90;;;;;;5059770;28;20177;-31
2023/07/21 12:38:57;;;;;;;4.50;2.05;;;24.80;99.10;;;;;;5067927;28;20194;-32
2023/07/21 12:41:23;;;;;;;6.55;1.90;;;24.70;99.30;;;;;;5052989;28;20266;-31
2023/07/21 12:43:49;;;;;;;5.93;2.22;;;24.50;99.80;;;;;;5036668;28;20186;-31
2023/07/21 12:46:15;;;;;;;4.70;2.35;;;24.40;99.90;;;;;;5036367;28;20185;-31
2023/07/21 12:48:42;;;;;;;3.65;1.70;;;24.20;99.80;;;;;;5052992;28;20206;-31
2023/07/21 12:51:08;;;;;;;4.45;1.58;;;24.10;99.90;;;;;;5047506;28;20182;-31
2023/07/21 12:53:34;;;;;;;4.03;1.50;;;24.10;99.90;;;;;;5047356;28;20289;-31
2023/07/21 12:56:01;;;;;;;4.80;1.70;;;24.10;99.90;;;;;;5051429;28;20273;-31
2023/07/21 12:58:27;;;;;;;3.83;1.80;;;24.10;99.90;;;;;;5048518;28;20206;-30